sensor_id;sensor_type;location;lat;lon;timestamp;pressure;altitude;pressure_sealevel;temperature
24639;BMP180;1641;51.306;12.384;2024-01-30T00:00:15;101530.00;;;7.20
24639;BMP180;1641;51.306;12.384;2024-01-30T00:02:41;101535.00;;;7.30
24639;BMP180;1641;51.306;12.384;2024-01-30T00:05:08;101535.00;;;7.20
24639;BMP180;1641;51.306;12.384;2024-01-30T00:07:33;101531.00;;;7.10
24639;BMP180;1641;51.306;12.384;2024-01-30T00:10:02;101514.00;;;7.00
24639;BMP180;1641;51.306;12.384;2024-01-30T00:12:27;101507.00;;;6.90
24639;BMP180;1641;51.306;12.384;2024-01-30T00:14:53;101509.00;;;6.90
24639;BMP180;1641;51.306;12.384;2024-01-30T00:17:21;101494.00;;;7.20
24639;BMP180;1641;51.306;12.384;2024-01-30T00:19:47;101517.00;;;7.10
24639;BMP180;1641;51.306;12.384;2024-01-30T00:22:12;101500.00;;;7.10
24639;BMP180;1641;51.306;12.384;2024-01-30T00:24:37;101530.00;;;7.00
24639;BMP180;1641;51.306;12.384;2024-01-30T00:27:03;101492.00;;;7.00
24639;BMP180;1641;51.306;12.384;2024-01-30T00:29:29;101520.00;;;7.10
24639;BMP180;1641;51.306;12.384;2024-01-30T00:31:56;101523.00;;;7.10
24639;BMP180;1641;51.306;12.384;2024-01-30T00:34:21;101521.00;;;7.10
24639;BMP180;1641;51.306;12.384;2024-01-30T00:36:47;101523.00;;;7.20
24639;BMP180;1641;51.306;12.384;2024-01-30T00:39:12;101525.00;;;7.20
24639;BMP180;1641;51.306;12.384;2024-01-30T00:41:37;101509.00;;;7.20
24639;BMP180;1641;51.306;12.384;2024-01-30T00:44:03;101472.00;;;7.20
24639;BMP180;1641;51.306;12.384;2024-01-30T00:46:28;101498.00;;;7.30
24639;BMP180;1641;51.306;12.384;2024-01-30T00:48:53;101517.00;;;7.20
24639;BMP180;1641;51.306;12.384;2024-01-30T00:51:19;101470.00;;;7.00
24639;BMP180;1641;51.306;12.384;2024-01-30T00:53:45;101441.00;;;7.00
24639;BMP180;1641;51.306;12.384;2024-01-30T00:56:10;101479.00;;;7.10
24639;BMP180;1641;51.306;12.384;2024-01-30T00:58:35;101491.00;;;7.10
24639;BMP180;1641;51.306;12.384;2024-01-30T01:01:00;101495.00;;;7.30
24639;BMP180;1641;51.306;12.384;2024-01-30T01:03:26;101432.00;;;7.20
24639;BMP180;1641;51.306;12.384;2024-01-30T01:05:51;101511.00;;;7.30
24639;BMP180;1641;51.306;12.384;2024-01-30T01:08:16;101525.00;;;7.10
24639;BMP180;1641;51.306;12.384;2024-01-30T01:10:41;101475.00;;;7.10
24639;BMP180;1641;51.306;12.384;2024-01-30T01:13:07;101480.00;;;7.20
24639;BMP180;1641;51.306;12.384;2024-01-30T01:15:32;101452.00;;;7.20
24639;BMP180;1641;51.306;12.384;2024-01-30T01:17:57;101520.00;;;7.10
24639;BMP180;1641;51.306;12.384;2024-01-30T01:20:23;101509.00;;;7.20
24639;BMP180;1641;51.306;12.384;2024-01-30T01:22:48;101503.00;;;7.30
24639;BMP180;1641;51.306;12.384;2024-01-30T01:25:14;101493.00;;;7.20
24639;BMP180;1641;51.306;12.384;2024-01-30T01:27:39;101494.00;;;7.20
24639;BMP180;1641;51.306;12.384;2024-01-30T01:30:10;101500.00;;;7.40
24639;BMP180;1641;51.306;12.384;2024-01-30T01:32:39;101495.00;;;7.20
24639;BMP180;1641;51.306;12.384;2024-01-30T01:35:09;101445.00;;;7.30
24639;BMP180;1641;51.306;12.384;2024-01-30T01:37:35;101494.00;;;7.20
24639;BMP180;1641;51.306;12.384;2024-01-30T01:40:04;101493.00;;;7.20
24639;BMP180;1641;51.306;12.384;2024-01-30T01:42:34;101496.00;;;6.90
24639;BMP180;1641;51.306;12.384;2024-01-30T01:45:00;101495.00;;;7.10
24639;BMP180;1641;51.306;12.384;2024-01-30T01:47:26;101480.00;;;7.10
24639;BMP180;1641;51.306;12.384;2024-01-30T01:49:51;101468.00;;;7.20
24639;BMP180;1641;51.306;12.384;2024-01-30T01:52:17;101485.00;;;7.20
24639;BMP180;1641;51.306;12.384;2024-01-30T01:54:42;101488.00;;;7.20
24639;BMP180;1641;51.306;12.384;2024-01-30T01:57:07;101483.00;;;7.00
24639;BMP180;1641;51.306;12.384;2024-01-30T01:59:33;101495.00;;;6.90
24639;BMP180;1641;51.306;12.384;2024-01-30T02:01:58;101488.00;;;6.70
24639;BMP180;1641;51.306;12.384;2024-01-30T02:04:23;101482.00;;;6.70
24639;BMP180;1641;51.306;12.384;2024-01-30T02:06:49;101493.00;;;6.80
24639;BMP180;1641;51.306;12.384;2024-01-30T02:09:14;101495.00;;;7.00
24639;BMP180;1641;51.306;12.384;2024-01-30T02:11:40;101458.00;;;7.10
24639;BMP180;1641;51.306;12.384;2024-01-30T02:14:06;101443.00;;;7.00
24639;BMP180;1641;51.306;12.384;2024-01-30T02:16:32;101422.00;;;6.80
24639;BMP180;1641;51.306;12.384;2024-01-30T02:18:57;101490.00;;;6.60
24639;BMP180;1641;51.306;12.384;2024-01-30T02:21:23;101470.00;;;6.60
24639;BMP180;1641;51.306;12.384;2024-01-30T02:23:48;101483.00;;;6.70
24639;BMP180;1641;51.306;12.384;2024-01-30T02:26:13;101470.00;;;6.70
24639;BMP180;1641;51.306;12.384;2024-01-30T02:28:38;101439.00;;;6.80
24639;BMP180;1641;51.306;12.384;2024-01-30T02:31:04;101444.00;;;6.80
24639;BMP180;1641;51.306;12.384;2024-01-30T02:33:30;101478.00;;;6.90
24639;BMP180;1641;51.306;12.384;2024-01-30T02:35:55;101473.00;;;6.70
24639;BMP180;1641;51.306;12.384;2024-01-30T02:38:21;101481.00;;;6.60
24639;BMP180;1641;51.306;12.384;2024-01-30T02:40:46;101483.00;;;6.90
24639;BMP180;1641;51.306;12.384;2024-01-30T02:43:14;101482.00;;;6.80
24639;BMP180;1641;51.306;12.384;2024-01-30T02:45:39;101485.00;;;6.80
24639;BMP180;1641;51.306;12.384;2024-01-30T02:48:05;101475.00;;;7.10
24639;BMP180;1641;51.306;12.384;2024-01-30T02:50:30;101443.00;;;7.10
24639;BMP180;1641;51.306;12.384;2024-01-30T02:52:56;101441.00;;;7.00
24639;BMP180;1641;51.306;12.384;2024-01-30T02:55:21;101483.00;;;7.00
24639;BMP180;1641;51.306;12.384;2024-01-30T02:57:46;101433.00;;;6.80
24639;BMP180;1641;51.306;12.384;2024-01-30T03:00:12;101474.00;;;7.00
24639;BMP180;1641;51.306;12.384;2024-01-30T03:02:37;101470.00;;;7.00
24639;BMP180;1641;51.306;12.384;2024-01-30T03:05:04;101473.00;;;6.90
24639;BMP180;1641;51.306;12.384;2024-01-30T03:07:29;101408.00;;;6.80
24639;BMP180;1641;51.306;12.384;2024-01-30T03:09:55;101463.00;;;6.80
24639;BMP180;1641;51.306;12.384;2024-01-30T03:12:20;101478.00;;;6.80
24639;BMP180;1641;51.306;12.384;2024-01-30T03:14:46;101472.00;;;6.70
24639;BMP180;1641;51.306;12.384;2024-01-30T03:17:11;101472.00;;;6.90
24639;BMP180;1641;51.306;12.384;2024-01-30T03:19:36;101440.00;;;7.00
24639;BMP180;1641;51.306;12.384;2024-01-30T03:22:02;101431.00;;;7.10
24639;BMP180;1641;51.306;12.384;2024-01-30T03:24:27;101442.00;;;7.10
24639;BMP180;1641;51.306;12.384;2024-01-30T03:26:53;101416.00;;;7.10
24639;BMP180;1641;51.306;12.384;2024-01-30T03:29:18;101451.00;;;7.00
24639;BMP180;1641;51.306;12.384;2024-01-30T03:31:43;101477.00;;;7.00
24639;BMP180;1641;51.306;12.384;2024-01-30T03:34:08;101463.00;;;6.80
24639;BMP180;1641;51.306;12.384;2024-01-30T03:36:34;101471.00;;;6.80
24639;BMP180;1641;51.306;12.384;2024-01-30T03:39:00;101464.00;;;6.80
24639;BMP180;1641;51.306;12.384;2024-01-30T03:41:25;101456.00;;;6.80
24639;BMP180;1641;51.306;12.384;2024-01-30T03:43:50;101412.00;;;6.70
24639;BMP180;1641;51.306;12.384;2024-01-30T03:46:16;101414.00;;;6.60
24639;BMP180;1641;51.306;12.384;2024-01-30T03:48:41;101457.00;;;6.50
24639;BMP180;1641;51.306;12.384;2024-01-30T03:51:09;101412.00;;;6.60
24639;BMP180;1641;51.306;12.384;2024-01-30T03:53:40;101448.00;;;6.60
24639;BMP180;1641;51.306;12.384;2024-01-30T03:56:05;101452.00;;;6.70
24639;BMP180;1641;51.306;12.384;2024-01-30T03:58:30;101447.00;;;6.80
24639;BMP180;1641;51.306;12.384;2024-01-30T04:00:55;101446.00;;;6.80
24639;BMP180;1641;51.306;12.384;2024-01-30T04:03:21;101441.00;;;6.80
24639;BMP180;1641;51.306;12.384;2024-01-30T04:05:46;101391.00;;;6.70
24639;BMP180;1641;51.306;12.384;2024-01-30T04:08:11;101438.00;;;6.60
24639;BMP180;1641;51.306;12.384;2024-01-30T04:10:36;101420.00;;;6.60
24639;BMP180;1641;51.306;12.384;2024-01-30T04:13:02;101452.00;;;6.80
24639;BMP180;1641;51.306;12.384;2024-01-30T04:15:27;101430.00;;;6.70
24639;BMP180;1641;51.306;12.384;2024-01-30T04:17:57;101445.00;;;6.90
24639;BMP180;1641;51.306;12.384;2024-01-30T04:20:22;101457.00;;;6.80
24639;BMP180;1641;51.306;12.384;2024-01-30T04:22:48;101450.00;;;6.90
24639;BMP180;1641;51.306;12.384;2024-01-30T04:25:13;101457.00;;;6.80
24639;BMP180;1641;51.306;12.384;2024-01-30T04:27:41;101393.00;;;6.90
24639;BMP180;1641;51.306;12.384;2024-01-30T04:30:07;101389.00;;;6.90
24639;BMP180;1641;51.306;12.384;2024-01-30T04:32:33;101411.00;;;7.00
24639;BMP180;1641;51.306;12.384;2024-01-30T04:34:58;101451.00;;;6.80
24639;BMP180;1641;51.306;12.384;2024-01-30T04:37:23;101452.00;;;6.80
24639;BMP180;1641;51.306;12.384;2024-01-30T04:39:49;101426.00;;;6.90
24639;BMP180;1641;51.306;12.384;2024-01-30T04:42:17;101449.00;;;6.90
24639;BMP180;1641;51.306;12.384;2024-01-30T04:44:42;101443.00;;;6.90
24639;BMP180;1641;51.306;12.384;2024-01-30T04:47:08;101444.00;;;7.00
24639;BMP180;1641;51.306;12.384;2024-01-30T04:49:36;101451.00;;;7.10
24639;BMP180;1641;51.306;12.384;2024-01-30T04:52:01;101419.00;;;7.10
24639;BMP180;1641;51.306;12.384;2024-01-30T04:54:26;101430.00;;;7.10
24639;BMP180;1641;51.306;12.384;2024-01-30T04:56:52;101441.00;;;6.80
24639;BMP180;1641;51.306;12.384;2024-01-30T04:59:17;101438.00;;;6.90
24639;BMP180;1641;51.306;12.384;2024-01-30T05:01:43;101367.00;;;6.90
24639;BMP180;1641;51.306;12.384;2024-01-30T05:04:09;101394.00;;;7.00
24639;BMP180;1641;51.306;12.384;2024-01-30T05:06:35;101395.00;;;7.10
24639;BMP180;1641;51.306;12.384;2024-01-30T05:09:00;101436.00;;;7.00
24639;BMP180;1641;51.306;12.384;2024-01-30T05:11:25;101417.00;;;6.70
24639;BMP180;1641;51.306;12.384;2024-01-30T05:13:50;101427.00;;;6.80
24639;BMP180;1641;51.306;12.384;2024-01-30T05:16:16;101383.00;;;7.00
24639;BMP180;1641;51.306;12.384;2024-01-30T05:18:41;101403.00;;;7.10
24639;BMP180;1641;51.306;12.384;2024-01-30T05:21:06;101436.00;;;7.20
24639;BMP180;1641;51.306;12.384;2024-01-30T05:23:35;101439.00;;;7.00
24639;BMP180;1641;51.306;12.384;2024-01-30T05:26:00;101422.00;;;6.80
24639;BMP180;1641;51.306;12.384;2024-01-30T05:28:26;101458.00;;;6.80
24639;BMP180;1641;51.306;12.384;2024-01-30T05:30:51;101458.00;;;6.80
24639;BMP180;1641;51.306;12.384;2024-01-30T05:33:16;101454.00;;;6.40
24639;BMP180;1641;51.306;12.384;2024-01-30T05:35:41;101451.00;;;6.40
24639;BMP180;1641;51.306;12.384;2024-01-30T05:38:07;101396.00;;;6.50
24639;BMP180;1641;51.306;12.384;2024-01-30T05:40:32;101451.00;;;6.50
24639;BMP180;1641;51.306;12.384;2024-01-30T05:42:57;101447.00;;;6.20
24639;BMP180;1641;51.306;12.384;2024-01-30T05:45:30;101443.00;;;6.30
24639;BMP180;1641;51.306;12.384;2024-01-30T05:47:55;101431.00;;;6.30
24639;BMP180;1641;51.306;12.384;2024-01-30T05:50:20;101439.00;;;6.20
24639;BMP180;1641;51.306;12.384;2024-01-30T05:52:48;101433.00;;;6.40
24639;BMP180;1641;51.306;12.384;2024-01-30T05:55:15;101382.00;;;6.50
24639;BMP180;1641;51.306;12.384;2024-01-30T05:57:41;101446.00;;;6.40
24639;BMP180;1641;51.306;12.384;2024-01-30T06:00:06;101437.00;;;6.60
24639;BMP180;1641;51.306;12.384;2024-01-30T06:02:32;101402.00;;;6.60
24639;BMP180;1641;51.306;12.384;2024-01-30T06:04:58;101446.00;;;6.80
24639;BMP180;1641;51.306;12.384;2024-01-30T06:07:23;101450.00;;;6.80
24639;BMP180;1641;51.306;12.384;2024-01-30T06:09:51;101435.00;;;6.40
24639;BMP180;1641;51.306;12.384;2024-01-30T06:12:17;101432.00;;;6.70
24639;BMP180;1641;51.306;12.384;2024-01-30T06:14:42;101446.00;;;6.60
24639;BMP180;1641;51.306;12.384;2024-01-30T06:17:08;101441.00;;;6.60
24639;BMP180;1641;51.306;12.384;2024-01-30T06:19:34;101453.00;;;6.80
24639;BMP180;1641;51.306;12.384;2024-01-30T06:21:59;101432.00;;;6.80
24639;BMP180;1641;51.306;12.384;2024-01-30T06:24:24;101392.00;;;6.60
24639;BMP180;1641;51.306;12.384;2024-01-30T06:26:49;101389.00;;;6.80
24639;BMP180;1641;51.306;12.384;2024-01-30T06:29:17;101440.00;;;6.80
24639;BMP180;1641;51.306;12.384;2024-01-30T06:31:43;101436.00;;;6.90
24639;BMP180;1641;51.306;12.384;2024-01-30T06:34:11;101428.00;;;6.90
24639;BMP180;1641;51.306;12.384;2024-01-30T06:36:37;101439.00;;;6.90
24639;BMP180;1641;51.306;12.384;2024-01-30T06:39:03;101414.00;;;7.00
24639;BMP180;1641;51.306;12.384;2024-01-30T06:41:28;101438.00;;;7.00
24639;BMP180;1641;51.306;12.384;2024-01-30T06:43:54;101437.00;;;6.90
24639;BMP180;1641;51.306;12.384;2024-01-30T06:46:19;101427.00;;;6.90
24639;BMP180;1641;51.306;12.384;2024-01-30T06:48:44;101444.00;;;6.90
24639;BMP180;1641;51.306;12.384;2024-01-30T06:51:10;101398.00;;;7.10
24639;BMP180;1641;51.306;12.384;2024-01-30T06:53:36;101444.00;;;7.20
24639;BMP180;1641;51.306;12.384;2024-01-30T06:56:05;101447.00;;;7.20
24639;BMP180;1641;51.306;12.384;2024-01-30T06:58:30;101398.00;;;6.90
24639;BMP180;1641;51.306;12.384;2024-01-30T07:00:56;101397.00;;;7.10
24639;BMP180;1641;51.306;12.384;2024-01-30T07:03:21;101437.00;;;7.10
24639;BMP180;1641;51.306;12.384;2024-01-30T07:05:47;101416.00;;;6.90
24639;BMP180;1641;51.306;12.384;2024-01-30T07:08:15;101438.00;;;7.20
24639;BMP180;1641;51.306;12.384;2024-01-30T07:10:44;101449.00;;;7.50
24639;BMP180;1641;51.306;12.384;2024-01-30T07:13:13;101439.00;;;7.60
24639;BMP180;1641;51.306;12.384;2024-01-30T07:15:38;101433.00;;;7.60
24639;BMP180;1641;51.306;12.384;2024-01-30T07:18:06;101450.00;;;7.50
24639;BMP180;1641;51.306;12.384;2024-01-30T07:20:31;101448.00;;;7.40
24639;BMP180;1641;51.306;12.384;2024-01-30T07:22:59;101447.00;;;7.60
24639;BMP180;1641;51.306;12.384;2024-01-30T07:25:25;101395.00;;;7.50
24639;BMP180;1641;51.306;12.384;2024-01-30T07:27:54;101436.00;;;7.50
24639;BMP180;1641;51.306;12.384;2024-01-30T07:30:20;101443.00;;;7.60
24639;BMP180;1641;51.306;12.384;2024-01-30T07:32:46;101412.00;;;7.50
24639;BMP180;1641;51.306;12.384;2024-01-30T07:35:11;101436.00;;;7.60
24639;BMP180;1641;51.306;12.384;2024-01-30T07:37:36;101390.00;;;7.50
24639;BMP180;1641;51.306;12.384;2024-01-30T07:40:02;101446.00;;;7.50
24639;BMP180;1641;51.306;12.384;2024-01-30T07:42:28;101415.00;;;7.50
24639;BMP180;1641;51.306;12.384;2024-01-30T07:44:53;101439.00;;;7.50
24639;BMP180;1641;51.306;12.384;2024-01-30T07:47:18;101389.00;;;7.70
24639;BMP180;1641;51.306;12.384;2024-01-30T07:49:44;101429.00;;;7.40
24639;BMP180;1641;51.306;12.384;2024-01-30T07:52:09;101385.00;;;7.40
24639;BMP180;1641;51.306;12.384;2024-01-30T07:54:34;101429.00;;;7.40
24639;BMP180;1641;51.306;12.384;2024-01-30T07:57:00;101349.00;;;7.80
24639;BMP180;1641;51.306;12.384;2024-01-30T07:59:26;101409.00;;;7.90
24639;BMP180;1641;51.306;12.384;2024-01-30T08:01:51;101399.00;;;8.10
24639;BMP180;1641;51.306;12.384;2024-01-30T08:04:16;101389.00;;;8.80
24639;BMP180;1641;51.306;12.384;2024-01-30T08:06:43;101363.00;;;9.00
24639;BMP180;1641;51.306;12.384;2024-01-30T08:09:10;101375.00;;;9.00
24639;BMP180;1641;51.306;12.384;2024-01-30T08:11:35;101369.00;;;9.10
24639;BMP180;1641;51.306;12.384;2024-01-30T08:14:01;101424.00;;;9.30
24639;BMP180;1641;51.306;12.384;2024-01-30T08:16:26;101419.00;;;9.60
24639;BMP180;1641;51.306;12.384;2024-01-30T08:18:51;101423.00;;;10.00
24639;BMP180;1641;51.306;12.384;2024-01-30T08:21:18;101404.00;;;10.00
24639;BMP180;1641;51.306;12.384;2024-01-30T08:23:43;101397.00;;;10.20
24639;BMP180;1641;51.306;12.384;2024-01-30T08:26:09;101419.00;;;10.10
24639;BMP180;1641;51.306;12.384;2024-01-30T08:28:34;101421.00;;;9.80
24639;BMP180;1641;51.306;12.384;2024-01-30T08:30:59;101384.00;;;10.00
24639;BMP180;1641;51.306;12.384;2024-01-30T08:33:24;101435.00;;;10.40
24639;BMP180;1641;51.306;12.384;2024-01-30T08:35:50;101412.00;;;10.40
24639;BMP180;1641;51.306;12.384;2024-01-30T08:38:15;101436.00;;;10.60
24639;BMP180;1641;51.306;12.384;2024-01-30T08:40:40;101439.00;;;10.80
24639;BMP180;1641;51.306;12.384;2024-01-30T08:43:06;101381.00;;;10.80
24639;BMP180;1641;51.306;12.384;2024-01-30T08:45:31;101383.00;;;10.30
24639;BMP180;1641;51.306;12.384;2024-01-30T08:47:56;101421.00;;;10.20
24639;BMP180;1641;51.306;12.384;2024-01-30T08:50:21;101429.00;;;10.50
24639;BMP180;1641;51.306;12.384;2024-01-30T08:52:47;101404.00;;;10.80
24639;BMP180;1641;51.306;12.384;2024-01-30T08:55:12;101418.00;;;10.80
24639;BMP180;1641;51.306;12.384;2024-01-30T08:57:37;101407.00;;;11.10
24639;BMP180;1641;51.306;12.384;2024-01-30T09:00:03;101422.00;;;10.90
24639;BMP180;1641;51.306;12.384;2024-01-30T09:02:31;101382.00;;;10.90
24639;BMP180;1641;51.306;12.384;2024-01-30T09:04:57;101427.00;;;11.10
24639;BMP180;1641;51.306;12.384;2024-01-30T09:07:22;101426.00;;;11.00
24639;BMP180;1641;51.306;12.384;2024-01-30T09:09:47;101429.00;;;10.80
24639;BMP180;1641;51.306;12.384;2024-01-30T09:12:14;101416.00;;;10.70
24639;BMP180;1641;51.306;12.384;2024-01-30T09:14:40;101422.00;;;11.10
24639;BMP180;1641;51.306;12.384;2024-01-30T09:17:06;101430.00;;;11.00
24639;BMP180;1641;51.306;12.384;2024-01-30T09:19:31;101392.00;;;11.00
24639;BMP180;1641;51.306;12.384;2024-01-30T09:21:56;101392.00;;;11.10
24639;BMP180;1641;51.306;12.384;2024-01-30T09:24:21;101424.00;;;11.20
24639;BMP180;1641;51.306;12.384;2024-01-30T09:26:47;101434.00;;;11.20
24639;BMP180;1641;51.306;12.384;2024-01-30T09:29:12;101414.00;;;11.10
24639;BMP180;1641;51.306;12.384;2024-01-30T09:31:37;101428.00;;;11.30
24639;BMP180;1641;51.306;12.384;2024-01-30T09:34:02;101372.00;;;11.30
24639;BMP180;1641;51.306;12.384;2024-01-30T09:36:28;101377.00;;;11.00
24639;BMP180;1641;51.306;12.384;2024-01-30T09:38:53;101425.00;;;10.90
24639;BMP180;1641;51.306;12.384;2024-01-30T09:41:19;101424.00;;;10.90
24639;BMP180;1641;51.306;12.384;2024-01-30T09:43:47;101427.00;;;10.70
24639;BMP180;1641;51.306;12.384;2024-01-30T09:46:15;101411.00;;;10.90
24639;BMP180;1641;51.306;12.384;2024-01-30T09:48:41;101430.00;;;10.80
24639;BMP180;1641;51.306;12.384;2024-01-30T09:51:09;101431.00;;;10.70
24639;BMP180;1641;51.306;12.384;2024-01-30T09:53:35;101433.00;;;10.80
24639;BMP180;1641;51.306;12.384;2024-01-30T09:56:02;101350.00;;;10.80
24639;BMP180;1641;51.306;12.384;2024-01-30T09:58:27;101426.00;;;10.70
24639;BMP180;1641;51.306;12.384;2024-01-30T10:00:53;101425.00;;;10.80
24639;BMP180;1641;51.306;12.384;2024-01-30T10:03:19;101425.00;;;10.80
24639;BMP180;1641;51.306;12.384;2024-01-30T10:05:50;101394.00;;;10.80
24639;BMP180;1641;51.306;12.384;2024-01-30T10:08:17;101378.00;;;10.80
24639;BMP180;1641;51.306;12.384;2024-01-30T10:10:48;101432.00;;;10.80
24639;BMP180;1641;51.306;12.384;2024-01-30T10:13:17;101381.00;;;10.70
24639;BMP180;1641;51.306;12.384;2024-01-30T10:15:44;101403.00;;;10.80
24639;BMP180;1641;51.306;12.384;2024-01-30T10:18:10;101431.00;;;10.90
24639;BMP180;1641;51.306;12.384;2024-01-30T10:20:38;101400.00;;;11.40
24639;BMP180;1641;51.306;12.384;2024-01-30T10:23:03;101418.00;;;11.40
24639;BMP180;1641;51.306;12.384;2024-01-30T10:25:30;101387.00;;;11.20
24639;BMP180;1641;51.306;12.384;2024-01-30T10:27:57;101425.00;;;11.20
24639;BMP180;1641;51.306;12.384;2024-01-30T10:30:23;101410.00;;;11.40
24639;BMP180;1641;51.306;12.384;2024-01-30T10:32:49;101376.00;;;11.60
24639;BMP180;1641;51.306;12.384;2024-01-30T10:35:15;101359.00;;;11.80
24639;BMP180;1641;51.306;12.384;2024-01-30T10:37:43;101377.00;;;11.20
24639;BMP180;1641;51.306;12.384;2024-01-30T10:40:13;101393.00;;;11.50
24639;BMP180;1641;51.306;12.384;2024-01-30T10:42:42;101402.00;;;11.70
24639;BMP180;1641;51.306;12.384;2024-01-30T10:45:10;101403.00;;;11.80
24639;BMP180;1641;51.306;12.384;2024-01-30T10:47:40;101348.00;;;12.00
24639;BMP180;1641;51.306;12.384;2024-01-30T10:50:05;101356.00;;;11.60
24639;BMP180;1641;51.306;12.384;2024-01-30T10:52:32;101349.00;;;11.70
24639;BMP180;1641;51.306;12.384;2024-01-30T10:55:07;101394.00;;;11.90
24639;BMP180;1641;51.306;12.384;2024-01-30T10:57:37;101384.00;;;11.80
24639;BMP180;1641;51.306;12.384;2024-01-30T11:00:10;101357.00;;;11.60
24639;BMP180;1641;51.306;12.384;2024-01-30T11:02:43;101385.00;;;11.60
24639;BMP180;1641;51.306;12.384;2024-01-30T11:05:10;101376.00;;;11.90
24639;BMP180;1641;51.306;12.384;2024-01-30T11:07:39;101385.00;;;11.90
24639;BMP180;1641;51.306;12.384;2024-01-30T11:10:08;101361.00;;;12.00
24639;BMP180;1641;51.306;12.384;2024-01-30T11:12:39;101357.00;;;12.10
24639;BMP180;1641;51.306;12.384;2024-01-30T11:15:10;101366.00;;;12.40
24639;BMP180;1641;51.306;12.384;2024-01-30T11:17:49;101380.00;;;12.70
24639;BMP180;1641;51.306;12.384;2024-01-30T11:20:29;101326.00;;;12.40
24639;BMP180;1641;51.306;12.384;2024-01-30T11:23:09;101294.00;;;12.30
24639;BMP180;1641;51.306;12.384;2024-01-30T11:25:48;101362.00;;;12.30
24639;BMP180;1641;51.306;12.384;2024-01-30T11:28:33;101316.00;;;12.00
24639;BMP180;1641;51.306;12.384;2024-01-30T11:31:07;101378.00;;;12.20
24639;BMP180;1641;51.306;12.384;2024-01-30T11:33:35;101373.00;;;12.20
24639;BMP180;1641;51.306;12.384;2024-01-30T11:36:04;101352.00;;;12.40
24639;BMP180;1641;51.306;12.384;2024-01-30T11:38:44;101337.00;;;12.20
24639;BMP180;1641;51.306;12.384;2024-01-30T11:41:26;101369.00;;;12.10
24639;BMP180;1641;51.306;12.384;2024-01-30T11:43:53;101306.00;;;12.40
24639;BMP180;1641;51.306;12.384;2024-01-30T11:46:21;101329.00;;;12.70
24639;BMP180;1641;51.306;12.384;2024-01-30T11:48:52;101286.00;;;12.70
24639;BMP180;1641;51.306;12.384;2024-01-30T11:51:17;101333.00;;;12.90
24639;BMP180;1641;51.306;12.384;2024-01-30T11:53:44;101340.00;;;13.10
24639;BMP180;1641;51.306;12.384;2024-01-30T11:56:12;101346.00;;;13.20
24639;BMP180;1641;51.306;12.384;2024-01-30T11:58:42;101324.00;;;13.70
24639;BMP180;1641;51.306;12.384;2024-01-30T12:01:19;101359.00;;;13.50
24639;BMP180;1641;51.306;12.384;2024-01-30T12:04:01;101299.00;;;13.80
24639;BMP180;1641;51.306;12.384;2024-01-30T12:06:27;101296.00;;;13.80
24639;BMP180;1641;51.306;12.384;2024-01-30T12:08:59;101321.00;;;13.60
24639;BMP180;1641;51.306;12.384;2024-01-30T12:11:25;101314.00;;;13.80
24639;BMP180;1641;51.306;12.384;2024-01-30T12:13:53;101346.00;;;14.00
24639;BMP180;1641;51.306;12.384;2024-01-30T12:16:22;101343.00;;;14.30
24639;BMP180;1641;51.306;12.384;2024-01-30T12:19:04;101307.00;;;14.20
24639;BMP180;1641;51.306;12.384;2024-01-30T12:21:33;101315.00;;;14.10
24639;BMP180;1641;51.306;12.384;2024-01-30T12:23:59;101305.00;;;14.20
24639;BMP180;1641;51.306;12.384;2024-01-30T12:26:25;101339.00;;;14.20
24639;BMP180;1641;51.306;12.384;2024-01-30T12:28:51;101325.00;;;14.40
24639;BMP180;1641;51.306;12.384;2024-01-30T12:31:25;101291.00;;;14.60
24639;BMP180;1641;51.306;12.384;2024-01-30T12:33:50;101322.00;;;14.50
24639;BMP180;1641;51.306;12.384;2024-01-30T12:36:16;101280.00;;;14.70
24639;BMP180;1641;51.306;12.384;2024-01-30T12:38:41;101299.00;;;15.10
24639;BMP180;1641;51.306;12.384;2024-01-30T12:41:07;101289.00;;;15.20
24639;BMP180;1641;51.306;12.384;2024-01-30T12:43:33;101266.00;;;15.20
24639;BMP180;1641;51.306;12.384;2024-01-30T12:45:59;101292.00;;;15.40
24639;BMP180;1641;51.306;12.384;2024-01-30T12:48:26;101310.00;;;15.30
24639;BMP180;1641;51.306;12.384;2024-01-30T12:50:52;101298.00;;;15.00
24639;BMP180;1641;51.306;12.384;2024-01-30T12:53:17;101252.00;;;14.70
24639;BMP180;1641;51.306;12.384;2024-01-30T12:55:43;101267.00;;;14.50
24639;BMP180;1641;51.306;12.384;2024-01-30T12:58:08;101306.00;;;14.90
24639;BMP180;1641;51.306;12.384;2024-01-30T13:00:34;101267.00;;;15.00
24639;BMP180;1641;51.306;12.384;2024-01-30T13:02:59;101306.00;;;14.20
24639;BMP180;1641;51.306;12.384;2024-01-30T13:05:25;101304.00;;;13.70
24639;BMP180;1641;51.306;12.384;2024-01-30T13:07:50;101265.00;;;13.70
24639;BMP180;1641;51.306;12.384;2024-01-30T13:10:19;101271.00;;;13.40
24639;BMP180;1641;51.306;12.384;2024-01-30T13:12:44;101269.00;;;13.40
24639;BMP180;1641;51.306;12.384;2024-01-30T13:15:09;101310.00;;;13.70
24639;BMP180;1641;51.306;12.384;2024-01-30T13:17:36;101282.00;;;13.90
24639;BMP180;1641;51.306;12.384;2024-01-30T13:20:01;101257.00;;;13.60
24639;BMP180;1641;51.306;12.384;2024-01-30T13:22:30;101251.00;;;13.90
24639;BMP180;1641;51.306;12.384;2024-01-30T13:24:58;101255.00;;;14.00
24639;BMP180;1641;51.306;12.384;2024-01-30T13:27:26;101295.00;;;14.20
24639;BMP180;1641;51.306;12.384;2024-01-30T13:29:51;101291.00;;;14.00
24639;BMP180;1641;51.306;12.384;2024-01-30T13:32:18;101293.00;;;14.10
24639;BMP180;1641;51.306;12.384;2024-01-30T13:34:43;101248.00;;;13.60
24639;BMP180;1641;51.306;12.384;2024-01-30T13:37:09;101301.00;;;13.70
24639;BMP180;1641;51.306;12.384;2024-01-30T13:39:34;101293.00;;;13.90
24639;BMP180;1641;51.306;12.384;2024-01-30T13:41:59;101264.00;;;14.10
24639;BMP180;1641;51.306;12.384;2024-01-30T13:44:25;101270.00;;;13.80
24639;BMP180;1641;51.306;12.384;2024-01-30T13:46:50;101278.00;;;14.00
24639;BMP180;1641;51.306;12.384;2024-01-30T13:49:15;101227.00;;;13.90
24639;BMP180;1641;51.306;12.384;2024-01-30T13:51:45;101286.00;;;13.50
24639;BMP180;1641;51.306;12.384;2024-01-30T13:54:17;101243.00;;;13.80
24639;BMP180;1641;51.306;12.384;2024-01-30T13:56:43;101253.00;;;13.70
24639;BMP180;1641;51.306;12.384;2024-01-30T13:59:08;101238.00;;;13.40